createdAt,value
2019-03-22T00:01:50.262Z,22.40
2019-03-22T00:04:19.123Z,21.35
2019-03-22T00:06:47.454Z,22.70
2019-03-22T00:09:16.610Z,19.65
2019-03-22T00:11:44.871Z,21.97
2019-03-22T00:14:13.065Z,19.55
2019-03-22T00:16:41.334Z,16.23
2019-03-22T00:19:09.553Z,20.12
2019-03-22T00:21:37.735Z,19.90
2019-03-22T00:24:05.963Z,17.55
2019-03-22T00:26:35.047Z,18.92
2019-03-22T00:29:03.931Z,18.23
2019-03-22T00:31:34.488Z,21.90
2019-03-22T00:34:02.767Z,21.60
2019-03-22T00:36:32.518Z,26.35
2019-03-22T00:39:00.755Z,24.10
2019-03-22T00:41:29.017Z,25.27
2019-03-22T00:43:57.273Z,24.77
2019-03-22T00:46:25.459Z,21.85
2019-03-22T00:48:53.720Z,24.85
2019-03-22T00:51:22.312Z,24.65
2019-03-22T00:53:51.694Z,21.65
2019-03-22T00:56:23.194Z,21.40
2019-03-22T00:58:51.438Z,22.98
2019-03-22T01:01:20.679Z,22.17
2019-03-22T01:03:51.351Z,20.00
2019-03-22T01:06:19.605Z,20.70
2019-03-22T01:08:47.929Z,22.13
2019-03-22T01:11:16.214Z,20.45
2019-03-22T01:13:44.718Z,19.60
2019-03-22T01:16:14.845Z,23.73
2019-03-22T01:18:43.057Z,20.35
2019-03-22T01:21:11.233Z,19.62
2019-03-22T01:23:41.564Z,19.40
2019-03-22T01:26:09.978Z,20.70
2019-03-22T01:28:40.341Z,20.43
2019-03-22T01:31:08.570Z,21.02
2019-03-22T01:33:36.801Z,19.07
2019-03-22T01:36:05.365Z,18.23
2019-03-22T01:38:33.571Z,19.00
2019-03-22T01:41:04.006Z,17.15
2019-03-22T01:43:32.182Z,17.35
2019-03-22T01:46:00.429Z,20.52
2019-03-22T01:48:30.715Z,22.90
2019-03-22T01:51:00.566Z,24.57
2019-03-22T01:53:28.871Z,27.30
2019-03-22T01:56:01.733Z,28.92
2019-03-22T01:58:29.980Z,29.80
2019-03-22T02:01:00.311Z,30.48
2019-03-22T02:03:28.477Z,28.35
2019-03-22T02:05:58.637Z,34.98
2019-03-22T02:08:30.199Z,30.70
2019-03-22T02:10:58.410Z,34.10
2019-03-22T02:13:27.807Z,32.10
2019-03-22T02:15:56.597Z,31.45
2019-03-22T02:18:25.330Z,29.72
2019-03-22T02:20:53.523Z,26.12
2019-03-22T02:23:21.716Z,27.05
2019-03-22T02:25:49.957Z,25.60
2019-03-22T02:28:21.587Z,24.18
2019-03-22T02:30:50.673Z,24.82
2019-03-22T02:33:20.420Z,23.80
2019-03-22T02:35:48.620Z,23.27
2019-03-22T02:38:16.897Z,21.85
2019-03-22T02:40:45.182Z,23.02
2019-03-22T02:43:15.762Z,24.92
2019-03-22T02:45:48.483Z,23.60
2019-03-22T02:48:16.758Z,22.70
2019-03-22T02:50:44.964Z,21.55
2019-03-22T02:53:13.621Z,27.75
2019-03-22T02:55:41.855Z,20.72
2019-03-22T02:58:20.606Z,21.95
2019-03-22T03:00:40.215Z,22.93
2019-03-22T03:03:09.946Z,22.70
2019-03-22T03:05:38.486Z,23.38
2019-03-22T03:08:06.676Z,23.65
2019-03-22T03:10:34.847Z,25.35
2019-03-22T03:13:03.073Z,27.48
2019-03-22T03:15:37.584Z,24.05
2019-03-22T03:18:11.407Z,23.27
2019-03-22T03:20:39.640Z,27.07
2019-03-22T03:23:10.179Z,28.92
2019-03-22T03:25:38.876Z,25.40
2019-03-22T03:28:07.181Z,23.27
2019-03-22T03:30:37.088Z,23.90
2019-03-22T03:33:06.128Z,23.32
2019-03-22T03:35:34.393Z,22.82
2019-03-22T03:38:02.713Z,22.50
2019-03-22T03:40:33.442Z,25.90
2019-03-22T03:43:04.926Z,23.12
2019-03-22T03:45:36.091Z,24.45
2019-03-22T03:48:04.693Z,23.07
2019-03-22T03:50:32.981Z,23.45
2019-03-22T03:53:01.366Z,21.40
2019-03-22T03:55:29.686Z,23.75
2019-03-22T03:57:58.199Z,22.58
2019-03-22T04:00:26.439Z,20.45
2019-03-22T04:02:56.838Z,22.45
2019-03-22T04:05:25.214Z,18.92
2019-03-22T04:07:53.470Z,20.12
2019-03-22T04:10:26.470Z,21.62
2019-03-22T04:12:54.978Z,21.20
2019-03-22T04:15:23.264Z,22.35
2019-03-22T04:17:53.649Z,22.75
2019-03-22T04:20:24.959Z,22.67
2019-03-22T04:22:55.189Z,22.80
2019-03-22T04:25:24.314Z,21.35
2019-03-22T04:27:53.596Z,23.42
2019-03-22T04:30:22.979Z,21.60
2019-03-22T04:32:51.215Z,23.25
2019-03-22T04:35:20.869Z,26.73
2019-03-22T04:37:51.337Z,26.42
2019-03-22T04:40:23.692Z,20.92
2019-03-22T04:42:53.793Z,20.05
2019-03-22T04:45:22.357Z,23.25
2019-03-22T04:47:53.338Z,20.25
2019-03-22T04:50:24.498Z,24.63
2019-03-22T04:52:53.226Z,23.80
2019-03-22T04:55:21.860Z,25.20
2019-03-22T04:57:53.043Z,25.35
2019-03-22T05:00:21.783Z,26.15
2019-03-22T05:02:51.868Z,24.90
2019-03-22T05:05:20.494Z,25.08
2019-03-22T05:07:49.572Z,24.52
2019-03-22T05:10:25.254Z,25.32
2019-03-22T05:12:54.988Z,23.73
2019-03-22T05:15:24.175Z,22.77
2019-03-22T05:17:52.479Z,24.75
2019-03-22T05:20:21.870Z,24.45
2019-03-22T05:22:51.669Z,20.55
2019-03-22T05:25:20.641Z,22.90
2019-03-22T05:27:49.742Z,23.35
2019-03-22T05:30:54.940Z,22.10
2019-03-22T05:33:23.240Z,21.20
2019-03-22T05:35:51.442Z,21.07
2019-03-22T05:38:19.730Z,19.62
2019-03-22T05:40:51.238Z,24.25
2019-03-22T05:43:19.627Z,22.17
2019-03-22T05:45:47.851Z,24.18
2019-03-22T05:48:16.155Z,23.73
2019-03-22T05:50:44.405Z,22.95
2019-03-22T05:53:12.898Z,22.35
2019-03-22T05:55:41.505Z,23.75
2019-03-22T05:58:11.466Z,21.62
2019-03-22T06:00:40.032Z,22.60
2019-03-22T06:03:08.309Z,22.55
2019-03-22T06:05:38.794Z,24.23
2019-03-22T06:08:07.065Z,21.95
2019-03-22T06:10:36.435Z,23.98
2019-03-22T06:13:04.702Z,21.60
2019-03-22T06:15:32.835Z,24.43
2019-03-22T06:18:00.998Z,23.67
2019-03-22T06:20:29.161Z,25.97
2019-03-22T06:22:57.314Z,24.65
2019-03-22T06:25:25.476Z,24.63
2019-03-22T06:27:53.667Z,25.00
2019-03-22T06:30:21.842Z,25.48
2019-03-22T06:32:49.969Z,29.72
2019-03-22T06:35:18.098Z,24.82
2019-03-22T06:37:46.217Z,23.57
2019-03-22T06:40:14.444Z,24.27
2019-03-22T06:42:42.626Z,31.48
2019-03-22T06:45:10.975Z,33.48
2019-03-22T06:47:39.090Z,33.73
2019-03-22T06:50:07.249Z,35.05
2019-03-22T06:52:35.378Z,34.30
2019-03-22T06:55:03.581Z,37.53
2019-03-22T06:57:31.719Z,40.15
2019-03-22T07:00:13.779Z,41.45
2019-03-22T07:02:42.150Z,43.60
2019-03-22T07:05:10.286Z,42.90
2019-03-22T07:07:38.434Z,42.60
2019-03-22T07:10:06.687Z,43.20
2019-03-22T07:12:34.835Z,43.50
2019-03-22T07:15:02.935Z,43.55
2019-03-22T07:17:31.081Z,45.73
2019-03-22T07:19:59.187Z,40.78
2019-03-22T07:22:27.346Z,38.80
2019-03-22T07:24:55.477Z,40.58
2019-03-22T07:27:23.598Z,43.58
2019-03-22T07:29:51.909Z,40.20
2019-03-22T07:32:20.056Z,37.17
2019-03-22T07:34:48.151Z,37.73
2019-03-22T07:37:16.275Z,37.80
2019-03-22T07:39:44.437Z,37.10
2019-03-22T07:42:12.591Z,34.05
2019-03-22T07:44:40.685Z,35.60
2019-03-22T07:47:08.923Z,35.05
2019-03-22T07:49:37.034Z,33.80
2019-03-22T07:52:05.282Z,34.33
2019-03-22T07:54:33.395Z,31.50
2019-03-22T07:57:01.555Z,31.85
2019-03-22T07:59:29.686Z,32.70
2019-03-22T08:01:57.825Z,30.30
2019-03-22T08:04:26.053Z,31.02
2019-03-22T08:06:54.186Z,30.00
2019-03-22T08:09:22.322Z,26.42
2019-03-22T08:11:50.406Z,26.85
2019-03-22T08:14:18.544Z,27.87
2019-03-22T08:16:46.630Z,26.48
2019-03-22T08:19:14.745Z,25.43
2019-03-22T08:21:42.844Z,25.35
2019-03-22T08:24:10.950Z,23.15
2019-03-22T08:26:39.089Z,24.37
2019-03-22T08:29:07.254Z,23.27
2019-03-22T08:31:38.404Z,23.12
2019-03-22T08:34:06.571Z,24.40
2019-03-22T08:36:34.665Z,24.23
2019-03-22T08:39:02.943Z,23.30
2019-03-22T08:41:31.135Z,23.73
2019-03-22T08:43:59.413Z,22.77
2019-03-22T08:46:27.585Z,22.70
2019-03-22T08:48:55.801Z,23.30
2019-03-22T08:51:24.052Z,23.25
2019-03-22T08:53:55.400Z,24.75
2019-03-22T08:56:22.069Z,23.10
2019-03-22T08:58:50.171Z,21.85
2019-03-22T09:01:18.471Z,23.80
2019-03-22T09:03:46.617Z,23.77
2019-03-22T09:06:14.828Z,22.65
2019-03-22T09:08:43.068Z,19.82
2019-03-22T09:11:11.232Z,20.45
2019-03-22T09:13:39.433Z,19.02
2019-03-22T09:16:07.578Z,21.95
2019-03-22T09:18:35.669Z,20.37
2019-03-22T09:21:03.857Z,21.68
2019-03-22T09:23:32.023Z,20.50
2019-03-22T09:26:00.305Z,19.98
2019-03-22T09:28:28.482Z,19.62
2019-03-22T09:31:09.375Z,20.17
2019-03-22T09:33:26.480Z,21.33
2019-03-22T09:35:54.642Z,20.02
2019-03-22T09:38:22.827Z,20.00
2019-03-22T09:40:51.127Z,20.97
2019-03-22T09:43:19.303Z,19.67
2019-03-22T09:45:47.491Z,19.55
2019-03-22T09:48:17.483Z,21.52
2019-03-22T09:51:08.715Z,20.30
2019-03-22T09:53:39.422Z,19.67
2019-03-22T09:56:30.124Z,21.55
2019-03-22T09:59:03.089Z,20.80
2019-03-22T10:01:31.393Z,20.08
2019-03-22T10:04:35.609Z,18.30
2019-03-22T10:07:03.986Z,18.10
2019-03-22T10:09:32.135Z,17.67
2019-03-22T10:12:00.415Z,17.67
2019-03-22T10:14:31.280Z,16.55
2019-03-22T10:16:58.432Z,18.80
2019-03-22T10:19:26.662Z,16.82
2019-03-22T10:21:54.876Z,17.55
2019-03-22T10:24:23.083Z,17.70
2019-03-22T10:26:51.322Z,19.35
2019-03-22T10:29:19.487Z,18.70
2019-03-22T10:31:50.288Z,17.77
2019-03-22T10:34:21.125Z,16.85
2019-03-22T10:36:49.434Z,19.92
2019-03-22T10:39:17.633Z,18.67
2019-03-22T10:41:45.921Z,18.23
2019-03-22T10:44:14.131Z,17.40
2019-03-22T10:46:42.265Z,16.02
2019-03-22T10:49:10.407Z,18.35
2019-03-22T10:51:38.506Z,16.67
2019-03-22T10:54:06.695Z,15.58
2019-03-22T10:56:34.878Z,17.60
2019-03-22T10:59:03.054Z,16.90
2019-03-22T11:01:31.180Z,18.10
2019-03-22T11:03:59.536Z,13.25
2019-03-22T11:06:27.962Z,15.98
2019-03-22T11:08:56.835Z,15.08
2019-03-22T11:11:25.011Z,13.68
2019-03-22T11:13:53.136Z,12.63
2019-03-22T11:16:21.250Z,12.37
2019-03-22T11:18:49.441Z,12.68
2019-03-22T11:21:17.588Z,13.48
2019-03-22T11:23:45.726Z,13.13
2019-03-22T11:26:13.902Z,12.85
2019-03-22T11:28:42.084Z,11.90
2019-03-22T11:31:10.263Z,12.20
2019-03-22T11:33:38.385Z,12.73
2019-03-22T11:36:06.526Z,12.25
2019-03-22T11:38:34.645Z,11.05
2019-03-22T11:41:02.842Z,10.98
2019-03-22T11:43:34.411Z,12.40
2019-03-22T11:46:02.083Z,10.80
2019-03-22T11:48:33.196Z,11.08
2019-03-22T11:51:09.346Z,9.83
2019-03-22T11:53:37.517Z,13.38
2019-03-22T11:56:05.926Z,7.90
2019-03-22T11:58:34.038Z,6.80
2019-03-22T12:01:02.203Z,6.83
2019-03-22T12:03:30.323Z,6.47
2019-03-22T12:05:58.509Z,5.37
2019-03-22T12:08:26.641Z,4.85
2019-03-22T12:10:54.809Z,5.12
2019-03-22T12:13:22.959Z,4.83
2019-03-22T12:15:51.083Z,4.65
2019-03-22T12:18:19.210Z,4.22
2019-03-22T12:20:47.334Z,4.65
2019-03-22T12:23:15.455Z,4.47
2019-03-22T12:25:43.640Z,4.90
2019-03-22T12:28:11.905Z,6.25
2019-03-22T12:30:40.021Z,5.72
2019-03-22T12:33:08.181Z,4.87
2019-03-22T12:35:36.317Z,4.35
2019-03-22T12:38:04.451Z,5.60
2019-03-22T12:40:32.610Z,6.42
2019-03-22T12:43:00.762Z,5.85
2019-03-22T12:45:29.163Z,5.50
2019-03-22T12:47:57.301Z,4.22
2019-03-22T12:50:25.617Z,4.70
2019-03-22T12:52:53.809Z,5.47
2019-03-22T12:55:21.938Z,4.47
2019-03-22T12:57:50.074Z,5.65
2019-03-22T13:00:19.282Z,3.85
2019-03-22T13:02:47.442Z,5.00
2019-03-22T13:05:15.652Z,3.40
2019-03-22T13:07:43.810Z,4.65
2019-03-22T13:10:12.281Z,5.00
2019-03-22T13:12:40.426Z,4.70
2019-03-22T13:15:08.626Z,5.15
2019-03-22T13:17:36.748Z,5.25
2019-03-22T13:20:05.713Z,5.60
2019-03-22T13:22:33.890Z,4.70
2019-03-22T13:25:02.033Z,4.60
2019-03-22T13:27:30.170Z,4.10
2019-03-22T13:29:58.305Z,5.30
2019-03-22T13:32:26.454Z,6.00
2019-03-22T13:34:54.611Z,5.70
2019-03-22T13:37:22.761Z,6.30
2019-03-22T13:39:50.977Z,6.47
2019-03-22T13:42:19.080Z,7.15
2019-03-22T13:44:47.251Z,6.65
2019-03-22T13:47:15.359Z,8.58
2019-03-22T13:49:43.524Z,9.25
2019-03-22T13:52:11.703Z,8.53
2019-03-22T13:54:39.842Z,8.20
2019-03-22T13:57:08.099Z,7.90
2019-03-22T13:59:36.326Z,8.13
2019-03-22T14:02:04.446Z,9.00
2019-03-22T14:04:32.587Z,7.70
2019-03-22T14:07:00.805Z,8.23
2019-03-22T14:09:28.945Z,7.33
2019-03-22T14:11:57.074Z,8.85
2019-03-22T14:14:25.259Z,7.72
2019-03-22T14:16:54.096Z,8.78
2019-03-22T14:19:22.389Z,9.05
2019-03-22T14:21:50.587Z,9.40
2019-03-22T14:24:18.721Z,9.00
2019-03-22T14:26:46.859Z,9.98
2019-03-22T14:29:15.005Z,8.33
2019-03-22T14:31:43.140Z,9.55
2019-03-22T14:34:11.264Z,8.40
2019-03-22T14:36:39.409Z,8.68
2019-03-22T14:39:08.291Z,8.50
2019-03-22T14:41:36.487Z,9.88
2019-03-22T14:44:04.666Z,8.78
2019-03-22T14:46:32.806Z,9.13
2019-03-22T14:49:00.923Z,8.60
2019-03-22T14:51:29.073Z,9.40
2019-03-22T14:53:57.282Z,8.65
2019-03-22T14:56:25.454Z,9.60
2019-03-22T14:58:53.600Z,9.43
2019-03-22T15:01:21.762Z,10.13
2019-03-22T15:03:50.026Z,10.23
2019-03-22T15:06:18.187Z,10.63
2019-03-22T15:08:46.396Z,10.55
2019-03-22T15:11:14.551Z,10.53
2019-03-22T15:13:51.784Z,11.70
2019-03-22T15:16:48.219Z,9.70
2019-03-22T15:19:34.091Z,11.10
2019-03-22T15:22:33.256Z,11.63
2019-03-22T15:25:19.027Z,10.40
2019-03-22T15:28:03.353Z,13.30
2019-03-22T15:30:53.497Z,11.65
2019-03-22T15:33:49.994Z,11.00
2019-03-22T15:36:42.400Z,10.40
2019-03-22T15:39:30.471Z,10.48
2019-03-22T15:41:58.889Z,9.70
2019-03-22T15:44:27.051Z,9.60
2019-03-22T15:46:55.270Z,9.40
2019-03-22T15:49:23.397Z,8.93
2019-03-22T15:51:51.543Z,9.78
2019-03-22T15:54:19.693Z,10.90
2019-03-22T15:56:47.939Z,10.68
2019-03-22T15:59:16.081Z,11.20
2019-03-22T16:01:44.182Z,11.25
2019-03-22T16:04:12.346Z,9.90
2019-03-22T16:06:40.495Z,10.13
2019-03-22T16:09:08.673Z,7.78
2019-03-22T16:11:36.847Z,9.75
2019-03-22T16:14:05.399Z,9.80
2019-03-22T16:16:33.574Z,7.10
2019-03-22T16:19:01.801Z,7.80
2019-03-22T16:21:29.938Z,6.67
2019-03-22T16:23:58.071Z,7.15
2019-03-22T16:26:26.174Z,9.33
2019-03-22T16:28:54.333Z,8.60
2019-03-22T16:31:22.454Z,7.42
2019-03-22T16:33:54.354Z,5.35
2019-03-22T16:36:20.465Z,5.80
2019-03-22T16:38:48.630Z,6.00
2019-03-22T16:41:16.806Z,4.80
2019-03-22T16:43:44.966Z,5.95
2019-03-22T16:46:14.239Z,6.30
2019-03-22T16:48:42.530Z,6.08
2019-03-22T16:51:10.697Z,6.55
2019-03-22T16:53:38.871Z,5.58
2019-03-22T16:56:07.282Z,6.25
2019-03-22T16:58:35.427Z,5.75
2019-03-22T17:01:05.186Z,5.00
2019-03-22T17:03:33.342Z,5.72
2019-03-22T17:06:01.539Z,5.53
2019-03-22T17:08:29.662Z,5.78
2019-03-22T17:10:57.858Z,6.95
2019-03-22T17:13:27.058Z,5.95
2019-03-22T17:15:55.226Z,5.62
2019-03-22T17:18:23.337Z,5.95
2019-03-22T17:20:51.454Z,5.85
2019-03-22T17:23:20.847Z,6.28
2019-03-22T17:25:49.010Z,9.30
2019-03-22T17:28:17.175Z,6.65
2019-03-22T17:30:45.326Z,4.92
2019-03-22T17:33:13.522Z,5.60
2019-03-22T17:35:41.699Z,5.25
2019-03-22T17:38:09.902Z,5.10
2019-03-22T17:40:38.053Z,5.15
2019-03-22T17:43:06.166Z,5.45
2019-03-22T17:45:34.280Z,5.40
2019-03-22T17:48:02.413Z,5.60
2019-03-22T17:50:30.578Z,5.58
2019-03-22T17:52:58.761Z,5.75
2019-03-22T17:55:26.843Z,5.25
2019-03-22T17:57:55.022Z,6.35
2019-03-22T18:00:24.725Z,6.10
2019-03-22T18:02:52.985Z,6.65
2019-03-22T18:05:25.891Z,6.22
2019-03-22T18:07:53.841Z,7.22
2019-03-22T18:10:22.067Z,6.90
2019-03-22T18:12:50.233Z,7.37
2019-03-22T18:15:19.928Z,6.50
2019-03-22T18:17:48.073Z,6.03
2019-03-22T18:20:19.246Z,6.90
2019-03-22T18:22:47.429Z,6.85
2019-03-22T18:25:15.870Z,6.47
2019-03-22T18:27:47.368Z,5.75
2019-03-22T18:30:17.035Z,6.10
2019-03-22T18:32:45.251Z,6.65
2019-03-22T18:35:19.055Z,6.70
2019-03-22T18:37:50.358Z,6.03
2019-03-22T18:40:20.203Z,6.70
2019-03-22T18:42:50.308Z,5.87
2019-03-22T18:45:18.550Z,6.67
2019-03-22T18:47:53.041Z,6.22
2019-03-22T18:50:21.390Z,5.47
2019-03-22T18:52:50.211Z,7.15
2019-03-22T18:55:18.550Z,6.28
2019-03-22T18:57:47.025Z,6.10
2019-03-22T19:00:17.493Z,7.05
2019-03-22T19:02:45.539Z,6.47
2019-03-22T19:05:14.449Z,6.60
2019-03-22T19:07:43.948Z,7.45
2019-03-22T19:10:12.103Z,6.40
2019-03-22T19:12:40.233Z,7.30
2019-03-22T19:15:09.665Z,8.05
2019-03-22T19:17:38.899Z,6.85
2019-03-22T19:20:08.518Z,6.17
2019-03-22T19:22:36.937Z,6.85
2019-03-22T19:25:05.863Z,6.92
2019-03-22T19:27:34.129Z,7.17
2019-03-22T19:30:02.569Z,7.75
2019-03-22T19:32:30.915Z,6.58
2019-03-22T19:34:59.182Z,7.10
2019-03-22T19:37:27.425Z,8.20
2019-03-22T19:39:58.255Z,8.95
2019-03-22T19:42:27.634Z,7.28
2019-03-22T19:44:55.791Z,7.58
2019-03-22T19:47:27.320Z,8.53
2019-03-22T19:49:55.587Z,8.80
2019-03-22T19:52:23.825Z,9.83
2019-03-22T19:54:52.044Z,8.35
2019-03-22T19:57:20.418Z,8.60
2019-03-22T19:59:50.418Z,8.83
2019-03-22T20:02:18.655Z,8.65
2019-03-22T20:04:46.913Z,8.25
2019-03-22T20:07:15.179Z,7.10
2019-03-22T20:09:45.548Z,6.50
2019-03-22T20:12:13.798Z,6.62
2019-03-22T20:14:42.238Z,7.70
2019-03-22T20:17:10.628Z,5.83
2019-03-22T20:19:39.208Z,8.20
2019-03-22T20:22:07.416Z,7.08
2019-03-22T20:24:36.510Z,8.23
2019-03-22T20:27:04.689Z,9.70
2019-03-22T20:29:32.859Z,8.23
2019-03-22T20:32:02.061Z,8.20
2019-03-22T20:34:30.283Z,8.20
2019-03-22T20:36:59.526Z,7.45
2019-03-22T20:39:29.057Z,6.50
2019-03-22T20:41:59.049Z,7.72
2019-03-22T20:44:33.902Z,6.72
2019-03-22T20:46:57.281Z,7.17
2019-03-22T20:49:25.447Z,7.60
2019-03-22T20:51:53.656Z,8.10
2019-03-22T20:54:21.903Z,8.13
2019-03-22T20:56:50.176Z,8.83
2019-03-22T20:59:18.368Z,7.78
2019-03-22T21:01:46.593Z,7.50
2019-03-22T21:04:15.235Z,7.33
2019-03-22T21:06:43.535Z,7.03
2019-03-22T21:09:11.652Z,7.17
2019-03-22T21:11:41.913Z,7.47
2019-03-22T21:14:10.070Z,6.72
2019-03-22T21:16:38.337Z,6.80
2019-03-22T21:19:06.559Z,7.20
2019-03-22T21:21:37.134Z,5.42
2019-03-22T21:24:05.387Z,5.58
2019-03-22T21:26:33.997Z,6.03
2019-03-22T21:29:02.269Z,5.60
2019-03-22T21:31:30.654Z,5.70
2019-03-22T21:34:02.671Z,6.00
2019-03-22T21:36:32.627Z,5.55
2019-03-22T21:39:01.111Z,6.28
2019-03-22T21:41:29.345Z,5.30
2019-03-22T21:43:57.602Z,5.55
2019-03-22T21:46:27.170Z,5.42
2019-03-22T21:48:57.651Z,5.03
2019-03-22T21:51:25.932Z,4.37
2019-03-22T21:53:54.158Z,6.20
2019-03-22T21:56:22.347Z,6.30
2019-03-22T21:58:50.786Z,5.30
2019-03-22T22:01:22.307Z,5.12
2019-03-22T22:03:53.659Z,5.33
2019-03-22T22:06:21.873Z,5.75
2019-03-22T22:08:50.156Z,5.53
2019-03-22T22:11:18.714Z,5.45
2019-03-22T22:13:46.962Z,4.72
2019-03-22T22:16:15.147Z,5.35
2019-03-22T22:18:43.787Z,5.35
2019-03-22T22:21:13.051Z,5.70
2019-03-22T22:23:41.478Z,4.55
2019-03-22T22:26:09.715Z,4.97
2019-03-22T22:28:37.911Z,4.70
2019-03-22T22:31:06.516Z,5.12
2019-03-22T22:33:34.834Z,4.75
2019-03-22T22:36:03.147Z,4.17
2019-03-22T22:38:31.346Z,3.80
2019-03-22T22:41:02.369Z,3.52
2019-03-22T22:43:32.857Z,5.10
2019-03-22T22:46:02.235Z,4.87
2019-03-22T22:48:32.025Z,5.60
2019-03-22T22:51:01.929Z,4.47
2019-03-22T22:53:30.171Z,4.45
2019-03-22T22:55:58.558Z,4.90
2019-03-22T22:58:26.787Z,5.58
2019-03-22T23:00:54.990Z,4.80
2019-03-22T23:03:24.235Z,5.20
2019-03-22T23:05:52.458Z,5.25
2019-03-22T23:08:20.675Z,4.40
2019-03-22T23:10:48.949Z,4.67
2019-03-22T23:13:17.190Z,6.60
2019-03-22T23:15:45.531Z,4.87
2019-03-22T23:18:15.321Z,5.90
2019-03-22T23:20:43.626Z,5.67
2019-03-22T23:23:13.871Z,5.37
2019-03-22T23:25:41.973Z,5.03
2019-03-22T23:28:10.230Z,4.60
2019-03-22T23:30:38.527Z,4.25
2019-03-22T23:33:06.770Z,4.20
2019-03-22T23:35:35.019Z,3.92
2019-03-22T23:38:03.554Z,4.00
2019-03-22T23:40:31.867Z,3.90
2019-03-22T23:43:00.118Z,3.58
2019-03-22T23:45:30.025Z,4.28
2019-03-22T23:47:58.734Z,4.50
2019-03-22T23:50:27.586Z,3.72
2019-03-22T23:52:55.808Z,4.25
2019-03-22T23:55:25.306Z,3.60
2019-03-22T23:57:53.675Z,4.08
